EGOS - Shawbury
Distance from station: E 5mi, 14km
Updated: 07/22/2018 6:50am
Mostly Cloudy
Mostly Cloudy
 Wind from NNW
Wind: NNW 6 mph , 9 km/h
Temperature: 77°F , 25°C
Dew Point: 61°F , 16°C
Humidity: 57%
Barometer: 30 inHg , 1016 hPa
Clouds: Mostly Cloudy
Visibility: 6 miles , 10 km
Cloud details: Mostly Cloudy 3200 ft
2018/07/22 13:50 EGOS 221350Z AUTO 33005KT 9999 BKN032/// 25/16 Q1016